Rachel — D5CG4 — position and weather

sailwx.info

Track history (hours):
 
Tides and Currents Weather Stations Pressure Air Temp Water Temp Dewpoint Dewpoint Depression Visibility Wind Speed Wind Dir Waves Ship Positions

Rachel

Last reported at 2016-Nov-25 16:33 UTC. Time now 2017-Nov-21 17:46 UTC.
Position N 34°35' E 134°53'.
Warning: this ship's position is months out of date.

Length 189 m; draft 6 m.

Type: Cargo ship. MMSI: 636015692.

Date/timePositionNaut miles runAvg speedWind from/ knotsBaromVisibWave heightAir tempDewpointWater temp
2016-Nov-25 16:33N 34°35' E 134°53'9 9.6
2016-Nov-25 15:33N 34°35' E 135°05'6 5.4
2016-Nov-25 14:25N 34°35' E 135°12'0 0.1
2016-Nov-25 13:31N 34°35' E 135°12'0 0.1
2016-Nov-25 12:07N 34°35' E 135°12'0 0.2
2016-Nov-25 11:31N 34°35' E 135°12'4 4.6
2016-Nov-25 10:33N 34°37' E 135°17'6 5.6
2016-Nov-25 09:32N 34°42' E 135°18'0 0.0
2016-Nov-25 08:20N 34°42' E 135°18'0 0.0
2016-Nov-25 07:26N 34°42' E 135°18'0 0.0
2016-Nov-25 06:32N 34°42' E 135°18'0 0.0
2016-Nov-25 05:32N 34°42' E 135°18'0 0.0
2016-Nov-25 04:20N 34°42' E 135°18'0 0.0
2016-Nov-25 03:32N 34°42' E 135°18'0 0.0
2016-Nov-25 02:32N 34°42' E 135°18'0 0.0
2016-Nov-25 01:14N 34°42' E 135°18'0 0.0
2016-Nov-25 00:32N 34°42' E 135°18'0 0.0
2016-Nov-24 23:32N 34°42' E 135°18'3 2.7
2016-Nov-24 22:33N 34°40' E 135°18'5 5.1
2016-Nov-24 21:29N 34°37' E 135°12'0 0.1
2016-Nov-24 20:23N 34°37' E 135°13'0 0.0
2016-Nov-24 19:23N 34°37' E 135°13'0 0.0
2016-Nov-24 18:29N 34°37' E 135°13'0 0.0
2016-Nov-24 17:17N 34°37' E 135°13'0 0.0
2016-Nov-24 16:23N 34°37' E 135°13'0 0.1
2016-Nov-24 15:29N 34°37' E 135°13'0 0.1
2016-Nov-24 14:29N 34°37' E 135°12'0 0.0
2016-Nov-24 13:23N 34°37' E 135°12'0 0.1
2016-Nov-24 12:29N 34°37' E 135°12'0 0.0
2016-Nov-24 11:23N 34°37' E 135°12'0 0.1
2016-Nov-24 10:29N 34°37' E 135°12'0 0.1
2016-Nov-24 09:29N 34°37' E 135°13'0 0.1
2016-Nov-24 08:29N 34°37' E 135°13'0 0.0
2016-Nov-24 07:29N 34°37' E 135°12'0 0.2
2016-Nov-24 06:29N 34°37' E 135°13'0 0.1
2016-Nov-24 05:29N 34°37' E 135°13'0 0.0
2016-Nov-24 04:17N 34°37' E 135°13'0 0.0
2016-Nov-24 03:29N 34°37' E 135°13'0 0.0
2016-Nov-24 02:17N 34°37' E 135°13'0 0.0
2016-Nov-24 01:23N 34°37' E 135°13'0 0.0
2016-Nov-24 00:29N 34°37' E 135°13'0 0.1
2016-Nov-23 23:29N 34°37' E 135°13'0 0.0
2016-Nov-23 22:29N 34°37' E 135°12'0 0.0
2016-Nov-23 21:29N 34°37' E 135°12'0 0.0
2016-Nov-23 20:29N 34°37' E 135°12'0 0.0
2016-Nov-23 19:29N 34°37' E 135°12'0 0.0
2016-Nov-23 18:05N 34°37' E 135°12'0 0.0
2016-Nov-23 17:29N 34°37' E 135°12'0 0.0
2016-Nov-23 16:29N 34°37' E 135°12'0 0.0
2016-Nov-23 15:23N 34°37' E 135°12'0 0.1
2016-Nov-23 14:29N 34°37' E 135°12'0 0.0
2016-Nov-23 13:23N 34°37' E 135°12'0 0.1
2016-Nov-23 12:29N 34°37' E 135°12'0 0.0
2016-Nov-23 11:29N 34°37' E 135°12'0 0.1
2016-Nov-23 10:29N 34°37' E 135°12'0 0.0
2016-Nov-23 09:29N 34°37' E 135°12'0 0.0
2016-Nov-23 08:29N 34°37' E 135°12'0 0.0
2016-Nov-23 07:29N 34°37' E 135°12'0 0.1
2016-Nov-23 06:29N 34°37' E 135°12'0 0.0
2016-Nov-23 03:29N 34°37' E 135°12'0 0.0
2016-Nov-23 02:29N 34°37' E 135°12'0 0.0
2016-Nov-23 00:29N 34°37' E 135°12'0 0.0
2016-Nov-22 23:29N 34°37' E 135°12'0 0.0
2016-Nov-22 22:29N 34°37' E 135°12'0 0.0
2016-Nov-22 20:29N 34°37' E 135°12'0 0.0
2016-Nov-22 19:29N 34°37' E 135°12'0 0.0
2016-Nov-22 17:29N 34°37' E 135°13'0 0.0
2016-Nov-22 16:29N 34°37' E 135°13'0 0.1
2016-Nov-22 15:29N 34°37' E 135°13'0 0.0
2016-Nov-22 14:29N 34°37' E 135°13'0 0.0
2016-Nov-22 13:23N 34°37' E 135°13'0 0.0
2016-Nov-22 10:29N 34°37' E 135°13'0 0.1
2016-Nov-22 09:29N 34°37' E 135°13'0 0.1
2016-Nov-22 08:29N 34°37' E 135°13'0 0.0
2016-Nov-22 07:28N 34°37' E 135°13'0 0.0
2016-Nov-22 05:28N 34°37' E 135°13'1 1.3
2016-Nov-22 04:33N 34°37' E 135°14'5 4.8
2016-Nov-22 03:28N 34°42' E 135°17'0 0.0
2016-Nov-22 02:28N 34°42' E 135°17'0 0.0
2016-Nov-21 23:28N 34°42' E 135°17'0 0.0
2016-Nov-21 21:28N 34°42' E 135°17'0 0.0
2016-Nov-21 17:28N 34°42' E 135°17'0 0.0
2016-Nov-21 14:28N 34°42' E 135°17'0 0.0
2016-Nov-21 13:28N 34°42' E 135°17'0 0.0
2016-Nov-21 12:28N 34°42' E 135°17'0 0.0
2016-Nov-21 11:28N 34°42' E 135°17'0 0.0
2016-Nov-21 10:16N 34°42' E 135°17'0 0.0
2016-Nov-21 08:28N 34°42' E 135°17'0 0.0
2016-Nov-21 07:28N 34°42' E 135°17'0 0.0
2016-Nov-21 05:28N 34°42' E 135°17'0 0.0
2016-Nov-21 04:28N 34°42' E 135°17'0 0.0
2016-Nov-21 02:28N 34°42' E 135°17'0 0.0
2016-Nov-21 00:28N 34°42' E 135°17'0 0.1
2016-Nov-20 22:29N 34°42' E 135°17'5 4.8
2016-Nov-20 21:27N 34°37' E 135°15'0 0.0
2016-Nov-20 17:33N 34°37' E 135°15'0 0.0
2016-Nov-20 16:33N 34°37' E 135°15'0 0.0
2016-Nov-20 14:33N 34°37' E 135°15'0 0.0
2016-Nov-20 13:33N 34°37' E 135°15'0 0.0
2016-Nov-20 12:27N 34°37' E 135°15'0 0.1
2016-Nov-20 09:33N 34°37' E 135°15'0 0.1
2016-Nov-20 08:33N 34°37' E 135°15'0 0.0
2016-Nov-20 07:33N 34°37' E 135°15'0 0.1
2016-Nov-20 06:33N 34°37' E 135°15'0 0.0
2016-Nov-20 05:33N 34°37' E 135°15'0 0.1
2016-Nov-20 04:33N 34°38' E 135°15'0 0.0
2016-Nov-20 03:33N 34°38' E 135°15'0 0.0
2016-Nov-20 01:27N 34°37' E 135°15'0 0.1
2016-Nov-19 23:33N 34°37' E 135°15'0 0.0
2016-Nov-19 22:33N 34°37' E 135°15'0 0.0
2016-Nov-19 20:33N 34°37' E 135°15'0 0.0
2016-Nov-19 19:33N 34°37' E 135°15'0 0.0
2016-Nov-19 17:33N 34°38' E 135°15'0 0.1
2016-Nov-19 16:33N 34°37' E 135°15'0 0.0
2016-Nov-19 14:33N 34°37' E 135°15'0 0.1
2016-Nov-19 11:33N 34°37' E 135°15'0 0.0
2016-Nov-19 09:33N 34°37' E 135°15'0 0.0
2016-Nov-19 07:33N 34°37' E 135°15'0 0.1
2016-Nov-19 05:33N 34°38' E 135°15'0 0.0
2016-Nov-19 04:33N 34°37' E 135°15'0 0.0
2016-Nov-19 03:33N 34°37' E 135°15'0 0.1
2016-Nov-19 02:33N 34°37' E 135°15'0 0.2
2016-Nov-19 01:33N 34°37' E 135°15'8 8.1
2016-Nov-19 00:33N 34°30' E 135°11'1414.0
2016-Nov-18 23:33N 34°19' E 135°00'  
Track history (hours):
 
Tides and Currents Weather Stations Pressure Air Temp Water Temp Dewpoint Dewpoint Depression Visibility Wind Speed Wind Dir Waves Ship Positions

Rachel

Last reported at 2016-Nov-25 16:33 UTC. Time now 2017-Nov-21 17:46 UTC.
Position N 34°35' E 134°53'.
Warning: this ship's position is months out of date.

Length 189 m; draft 6 m.

Type: Cargo ship. MMSI: 636015692.

Date/timePositionNaut miles runAvg speedWind from/ knotsBaromVisibWave heightAir tempDewpointWater temp
2016-Nov-25 16:33N 34°35' E 134°53'9 9.6
2016-Nov-25 15:33N 34°35' E 135°05'6 5.4
2016-Nov-25 14:25N 34°35' E 135°12'0 0.1
2016-Nov-25 13:31N 34°35' E 135°12'0 0.1
2016-Nov-25 12:07N 34°35' E 135°12'0 0.2
2016-Nov-25 11:31N 34°35' E 135°12'4 4.6
2016-Nov-25 10:33N 34°37' E 135°17'6 5.6
2016-Nov-25 09:32N 34°42' E 135°18'0 0.0
2016-Nov-25 08:20N 34°42' E 135°18'0 0.0
2016-Nov-25 07:26N 34°42' E 135°18'0 0.0
2016-Nov-25 06:32N 34°42' E 135°18'0 0.0
2016-Nov-25 05:32N 34°42' E 135°18'0 0.0
2016-Nov-25 04:20N 34°42' E 135°18'0 0.0
2016-Nov-25 03:32N 34°42' E 135°18'0 0.0
2016-Nov-25 02:32N 34°42' E 135°18'0 0.0
2016-Nov-25 01:14N 34°42' E 135°18'0 0.0
2016-Nov-25 00:32N 34°42' E 135°18'0 0.0
2016-Nov-24 23:32N 34°42' E 135°18'3 2.7
2016-Nov-24 22:33N 34°40' E 135°18'5 5.1
2016-Nov-24 21:29N 34°37' E 135°12'0 0.1
2016-Nov-24 20:23N 34°37' E 135°13'0 0.0
2016-Nov-24 19:23N 34°37' E 135°13'0 0.0
2016-Nov-24 18:29N 34°37' E 135°13'0 0.0
2016-Nov-24 17:17N 34°37' E 135°13'0 0.0
2016-Nov-24 16:23N 34°37' E 135°13'0 0.1
2016-Nov-24 15:29N 34°37' E 135°13'0 0.1
2016-Nov-24 14:29N 34°37' E 135°12'0 0.0
2016-Nov-24 13:23N 34°37' E 135°12'0 0.1
2016-Nov-24 12:29N 34°37' E 135°12'0 0.0
2016-Nov-24 11:23N 34°37' E 135°12'0 0.1
2016-Nov-24 10:29N 34°37' E 135°12'0 0.1
2016-Nov-24 09:29N 34°37' E 135°13'0 0.1
2016-Nov-24 08:29N 34°37' E 135°13'0 0.0
2016-Nov-24 07:29N 34°37' E 135°12'0 0.2
2016-Nov-24 06:29N 34°37' E 135°13'0 0.1
2016-Nov-24 05:29N 34°37' E 135°13'0 0.0
2016-Nov-24 04:17N 34°37' E 135°13'0 0.0
2016-Nov-24 03:29N 34°37' E 135°13'0 0.0
2016-Nov-24 02:17N 34°37' E 135°13'0 0.0
2016-Nov-24 01:23N 34°37' E 135°13'0 0.0
2016-Nov-24 00:29N 34°37' E 135°13'0 0.1
2016-Nov-23 23:29N 34°37' E 135°13'0 0.0
2016-Nov-23 22:29N 34°37' E 135°12'0 0.0
2016-Nov-23 21:29N 34°37' E 135°12'0 0.0
2016-Nov-23 20:29N 34°37' E 135°12'0 0.0
2016-Nov-23 19:29N 34°37' E 135°12'0 0.0
2016-Nov-23 18:05N 34°37' E 135°12'0 0.0
2016-Nov-23 17:29N 34°37' E 135°12'0 0.0
2016-Nov-23 16:29N 34°37' E 135°12'0 0.0
2016-Nov-23 15:23N 34°37' E 135°12'0 0.1
2016-Nov-23 14:29N 34°37' E 135°12'0 0.0
2016-Nov-23 13:23N 34°37' E 135°12'0 0.1
2016-Nov-23 12:29N 34°37' E 135°12'0 0.0
2016-Nov-23 11:29N 34°37' E 135°12'0 0.1
2016-Nov-23 10:29N 34°37' E 135°12'0 0.0
2016-Nov-23 09:29N 34°37' E 135°12'0 0.0
2016-Nov-23 08:29N 34°37' E 135°12'0 0.0
2016-Nov-23 07:29N 34°37' E 135°12'0 0.1
2016-Nov-23 06:29N 34°37' E 135°12'0 0.0
2016-Nov-23 03:29N 34°37' E 135°12'0 0.0
2016-Nov-23 02:29N 34°37' E 135°12'0 0.0
2016-Nov-23 00:29N 34°37' E 135°12'0 0.0
2016-Nov-22 23:29N 34°37' E 135°12'0 0.0
2016-Nov-22 22:29N 34°37' E 135°12'0 0.0
2016-Nov-22 20:29N 34°37' E 135°12'0 0.0
2016-Nov-22 19:29N 34°37' E 135°12'0 0.0
2016-Nov-22 17:29N 34°37' E 135°13'0 0.0
2016-Nov-22 16:29N 34°37' E 135°13'0 0.1
2016-Nov-22 15:29N 34°37' E 135°13'0 0.0
2016-Nov-22 14:29N 34°37' E 135°13'0 0.0
2016-Nov-22 13:23N 34°37' E 135°13'0 0.0
2016-Nov-22 10:29N 34°37' E 135°13'0 0.1
2016-Nov-22 09:29N 34°37' E 135°13'0 0.1
2016-Nov-22 08:29N 34°37' E 135°13'0 0.0
2016-Nov-22 07:28N 34°37' E 135°13'0 0.0
2016-Nov-22 05:28N 34°37' E 135°13'1 1.3
2016-Nov-22 04:33N 34°37' E 135°14'5 4.8
2016-Nov-22 03:28N 34°42' E 135°17'0 0.0
2016-Nov-22 02:28N 34°42' E 135°17'0 0.0
2016-Nov-21 23:28N 34°42' E 135°17'0 0.0
2016-Nov-21 21:28N 34°42' E 135°17'0 0.0
2016-Nov-21 17:28N 34°42' E 135°17'0 0.0
2016-Nov-21 14:28N 34°42' E 135°17'0 0.0
2016-Nov-21 13:28N 34°42' E 135°17'0 0.0
2016-Nov-21 12:28N 34°42' E 135°17'0 0.0
2016-Nov-21 11:28N 34°42' E 135°17'0 0.0
2016-Nov-21 10:16N 34°42' E 135°17'0 0.0
2016-Nov-21 08:28N 34°42' E 135°17'0 0.0
2016-Nov-21 07:28N 34°42' E 135°17'0 0.0
2016-Nov-21 05:28N 34°42' E 135°17'0 0.0
2016-Nov-21 04:28N 34°42' E 135°17'0 0.0
2016-Nov-21 02:28N 34°42' E 135°17'0 0.0
2016-Nov-21 00:28N 34°42' E 135°17'0 0.1
2016-Nov-20 22:29N 34°42' E 135°17'5 4.8
2016-Nov-20 21:27N 34°37' E 135°15'0 0.0
2016-Nov-20 17:33N 34°37' E 135°15'0 0.0
2016-Nov-20 16:33N 34°37' E 135°15'0 0.0
2016-Nov-20 14:33N 34°37' E 135°15'0 0.0
2016-Nov-20 13:33N 34°37' E 135°15'0 0.0
2016-Nov-20 12:27N 34°37' E 135°15'0 0.1
2016-Nov-20 09:33N 34°37' E 135°15'0 0.1
2016-Nov-20 08:33N 34°37' E 135°15'0 0.0
2016-Nov-20 07:33N 34°37' E 135°15'0 0.1
2016-Nov-20 06:33N 34°37' E 135°15'0 0.0
2016-Nov-20 05:33N 34°37' E 135°15'0 0.1
2016-Nov-20 04:33N 34°38' E 135°15'0 0.0
2016-Nov-20 03:33N 34°38' E 135°15'0 0.0
2016-Nov-20 01:27N 34°37' E 135°15'0 0.1
2016-Nov-19 23:33N 34°37' E 135°15'0 0.0
2016-Nov-19 22:33N 34°37' E 135°15'0 0.0
2016-Nov-19 20:33N 34°37' E 135°15'0 0.0
2016-Nov-19 19:33N 34°37' E 135°15'0 0.0
2016-Nov-19 17:33N 34°38' E 135°15'0 0.1
2016-Nov-19 16:33N 34°37' E 135°15'0 0.0
2016-Nov-19 14:33N 34°37' E 135°15'0 0.1
2016-Nov-19 11:33N 34°37' E 135°15'0 0.0
2016-Nov-19 09:33N 34°37' E 135°15'0 0.0
2016-Nov-19 07:33N 34°37' E 135°15'0 0.1
2016-Nov-19 05:33N 34°38' E 135°15'0 0.0
2016-Nov-19 04:33N 34°37' E 135°15'0 0.0
2016-Nov-19 03:33N 34°37' E 135°15'0 0.1
2016-Nov-19 02:33N 34°37' E 135°15'0 0.2
2016-Nov-19 01:33N 34°37' E 135°15'8 8.1
2016-Nov-19 00:33N 34°30' E 135°11'1414.0
2016-Nov-18 23:33N 34°19' E 135°00'  

Dump ship's entire track history